createdAt,value
2022-08-11T00:00:37.604Z,94797.53
2022-08-11T00:02:42.654Z,94799.03
2022-08-11T00:04:44.446Z,94803.34
2022-08-11T00:06:47.020Z,94799.84
2022-08-11T00:08:51.160Z,94800.09
2022-08-11T00:11:05.508Z,94799.94
2022-08-11T00:13:07.820Z,94802.75
2022-08-11T00:15:10.355Z,94800.31
2022-08-11T00:17:14.387Z,94801.78
2022-08-11T00:20:12.186Z,94810.69
2022-08-11T00:22:04.132Z,94804.13
2022-08-11T00:24:06.879Z,94801.94
2022-08-11T00:26:09.247Z,94799.56
2022-08-11T00:28:28.967Z,94794.91
2022-08-11T00:30:39.433Z,94801.19
2022-08-11T00:32:44.214Z,94795.63
2022-08-11T00:34:46.834Z,94793.34
2022-08-11T00:37:03.563Z,94790.47
2022-08-11T00:39:07.471Z,94793.94
2022-08-11T00:41:12.084Z,94791.47
2022-08-11T00:43:21.335Z,94789.94
2022-08-11T00:45:37.239Z,94789.94
2022-08-11T00:48:07.911Z,94786.31
2022-08-11T00:50:27.845Z,94784.69
2022-08-11T00:52:48.394Z,94775.28
2022-08-11T00:55:12.227Z,94781.44
2022-08-11T00:57:36.017Z,94781.88
2022-08-11T00:59:50.539Z,94786.25
2022-08-11T01:02:00.284Z,94783.44
2022-08-11T01:04:11.610Z,94786.97
2022-08-11T01:06:38.332Z,94790.53
2022-08-11T01:09:09.441Z,94786.63
2022-08-11T01:11:27.435Z,94783.50
2022-08-11T01:14:08.697Z,94778.56
2022-08-11T01:16:36.834Z,94777.22
2022-08-11T01:18:56.763Z,94775.16
2022-08-11T01:20:58.916Z,94781.06
2022-08-11T01:23:08.270Z,94783.06
2022-08-11T01:25:57.081Z,94772.53
2022-08-11T01:28:29.948Z,94777.69
2022-08-11T01:30:54.371Z,94775.75
2022-08-11T01:33:24.734Z,94776.75
2022-08-11T01:35:48.369Z,94766.47
2022-08-11T01:37:50.139Z,94766.03
2022-08-11T01:40:23.473Z,94771.06
2022-08-11T01:43:20.964Z,94769.75
2022-08-11T01:45:53.969Z,94764.47
2022-08-11T01:48:20.981Z,94761.19
2022-08-11T01:50:47.345Z,94765.59
2022-08-11T01:53:04.309Z,94764.34
2022-08-11T01:55:24.177Z,94768.25
2022-08-11T01:57:36.509Z,94767.44
2022-08-11T01:59:48.910Z,94765.59
2022-08-11T02:02:16.695Z,94762.00
2022-08-11T02:04:34.437Z,94765.06
2022-08-11T02:06:54.722Z,94762.66
2022-08-11T02:09:25.469Z,94764.06
2022-08-11T02:11:35.774Z,94763.84
2022-08-11T02:14:16.602Z,94766.72
2022-08-11T02:16:37.345Z,94765.91
2022-08-11T02:18:59.924Z,94763.25
2022-08-11T02:21:25.722Z,94757.53
2022-08-11T02:24:06.029Z,94766.56
2022-08-11T02:26:20.044Z,94765.53
2022-08-11T02:28:29.450Z,94765.53
2022-08-11T02:30:38.137Z,94760.88
2022-08-11T02:33:07.585Z,94763.38
2022-08-11T02:35:36.981Z,94768.34
2022-08-11T02:38:00.692Z,94761.38
2022-08-11T02:40:43.271Z,94762.50
2022-08-11T02:42:45.422Z,94765.22
2022-08-11T02:45:02.621Z,94759.13
2022-08-11T02:47:23.059Z,94757.88
2022-08-11T02:50:06.367Z,94759.44
2022-08-11T02:52:31.642Z,94765.22
2022-08-11T02:54:46.474Z,94767.44
2022-08-11T02:56:57.935Z,94768.03
2022-08-11T02:59:23.730Z,94755.16
2022-08-11T03:01:32.440Z,94758.19
2022-08-11T03:04:11.331Z,94761.50
2022-08-11T03:06:26.719Z,94762.19
2022-08-11T03:08:51.446Z,94769.34
2022-08-11T03:11:20.882Z,94776.75
2022-08-11T03:13:47.521Z,94772.63
2022-08-11T03:16:44.456Z,94768.91
2022-08-11T03:19:12.629Z,94764.78
2022-08-11T03:22:02.200Z,94770.31
2022-08-11T03:24:13.019Z,94768.03
2022-08-11T03:26:26.935Z,94767.59
2022-08-11T03:28:35.619Z,94772.47
2022-08-11T03:30:46.570Z,94769.66
2022-08-11T03:33:08.405Z,94764.31
2022-08-11T03:35:21.400Z,94761.50
2022-08-11T03:37:51.160Z,94761.50
2022-08-11T03:40:12.008Z,94764.31
2022-08-11T03:42:32.772Z,94771.22
2022-08-11T03:44:53.740Z,94768.56
2022-08-11T03:47:33.435Z,94772.63
2022-08-11T03:49:42.015Z,94772.41
2022-08-11T03:52:07.080Z,94770.75
2022-08-11T03:54:20.408Z,94768.47
2022-08-11T03:56:52.682Z,94769.06
2022-08-11T03:59:26.583Z,94772.53
2022-08-11T04:02:09.353Z,94771.28
2022-08-11T04:04:22.792Z,94770.66
2022-08-11T04:06:30.775Z,94771.25
2022-08-11T04:08:38.602Z,94772.03
2022-08-11T04:11:05.059Z,94776.31
2022-08-11T04:13:48.168Z,94774.94
2022-08-11T04:16:29.251Z,94769.28
2022-08-11T04:19:05.472Z,94782.09
2022-08-11T04:21:28.813Z,94776.88
2022-08-11T04:24:36.060Z,94778.75
2022-08-11T04:26:35.397Z,94774.22
2022-08-11T04:29:09.381Z,94774.56
2022-08-11T04:31:44.472Z,94780.69
2022-08-11T04:34:07.061Z,94775.06
2022-08-11T04:36:49.762Z,94783.22
2022-08-11T04:38:58.949Z,94787.75
2022-08-11T04:41:22.428Z,94783.69
2022-08-11T04:44:05.797Z,94782.69
2022-08-11T04:46:27.783Z,94780.41
2022-08-11T04:49:25.529Z,94786.47
2022-08-11T04:52:12.799Z,94784.97
2022-08-11T04:54:42.383Z,94791.63
2022-08-11T04:57:04.058Z,94787.22
2022-08-11T04:59:31.481Z,94800.00
2022-08-11T05:01:42.153Z,94798.28
2022-08-11T05:04:28.321Z,94801.41
2022-08-11T05:07:16.424Z,94797.19
2022-08-11T05:10:06.135Z,94794.16
2022-08-11T05:12:22.303Z,94794.41
2022-08-11T05:14:49.865Z,94788.00
2022-08-11T05:17:12.976Z,94792.41
2022-08-11T05:19:38.795Z,94799.56
2022-08-11T05:22:01.710Z,94791.69
2022-08-11T05:24:51.309Z,94790.28
2022-08-11T05:27:13.950Z,94781.94
2022-08-11T05:30:05.510Z,94784.38
2022-08-11T05:32:26.471Z,94791.13
2022-08-11T05:34:54.683Z,94798.53
2022-08-11T05:37:25.759Z,94792.75
2022-08-11T05:39:52.486Z,94791.81
2022-08-11T05:42:20.911Z,94788.84
2022-08-11T05:44:50.528Z,94788.59
2022-08-11T05:47:10.743Z,94786.06
2022-08-11T05:49:33.371Z,94790.34
2022-08-11T05:51:57.215Z,94781.56
2022-08-11T05:54:29.534Z,94790.69
2022-08-11T05:56:33.361Z,94788.94
2022-08-11T05:58:41.686Z,94784.88
2022-08-11T06:00:46.610Z,94784.44
2022-08-11T06:02:57.527Z,94782.69
2022-08-11T06:05:00.471Z,94791.00
2022-08-11T06:07:06.450Z,94785.81
2022-08-11T06:09:08.966Z,94789.84
2022-08-11T06:11:11.039Z,94785.91
2022-08-11T06:13:23.921Z,94787.09
2022-08-11T06:15:26.217Z,94788.16
2022-08-11T06:17:38.394Z,94784.84
2022-08-11T06:19:43.236Z,94780.78
2022-08-11T06:21:46.301Z,94781.19
2022-08-11T06:23:48.658Z,94781.75
2022-08-11T06:25:51.939Z,94779.03
2022-08-11T06:27:56.507Z,94775.53
2022-08-11T06:29:59.076Z,94771.28
2022-08-11T06:32:02.267Z,94777.13
2022-08-11T06:34:27.123Z,94772.59
2022-08-11T06:36:34.883Z,94780.03
2022-08-11T06:38:58.172Z,94773.69
2022-08-11T06:41:22.935Z,94777.00
2022-08-11T06:43:27.238Z,94771.97
2022-08-11T06:45:47.395Z,94775.22
2022-08-11T06:47:49.539Z,94765.13
2022-08-11T06:50:09.828Z,94776.78
2022-08-11T06:52:34.073Z,94773.31
2022-08-11T06:54:41.768Z,94770.19
2022-08-11T06:59:48.042Z,94771.44
2022-08-11T07:02:03.759Z,94775.19
2022-08-11T07:04:08.667Z,94775.25
2022-08-11T07:06:34.533Z,94775.97
2022-08-11T07:09:25.243Z,94778.44
2022-08-11T07:12:03.716Z,94778.41
2022-08-11T07:14:25.018Z,94775.78
2022-08-11T07:16:29.196Z,94785.63
2022-08-11T07:18:54.588Z,94785.88
2022-08-11T07:22:00.026Z,94788.44
2022-08-11T07:24:06.937Z,94786.69
2022-08-11T07:26:28.460Z,94786.81
2022-08-11T07:28:50.775Z,94793.31
2022-08-11T07:30:58.736Z,94782.22
2022-08-11T07:33:02.562Z,94781.72
2022-08-11T07:35:16.072Z,94776.75
2022-08-11T07:37:20.733Z,94775.22
2022-08-11T07:39:25.230Z,94782.38
2022-08-11T07:41:31.264Z,94776.88
2022-08-11T07:43:35.766Z,94783.03
2022-08-11T07:46:01.858Z,94776.00
2022-08-11T07:48:22.880Z,94776.56
2022-08-11T07:50:43.778Z,94778.25
2022-08-11T07:52:46.991Z,94775.72
2022-08-11T07:54:56.590Z,94770.78
2022-08-11T07:57:09.104Z,94769.19
2022-08-11T07:59:59.974Z,94768.25
2022-08-11T08:02:20.516Z,94766.53
2022-08-11T08:04:45.326Z,94766.78
2022-08-11T08:07:07.521Z,94759.09
2022-08-11T08:09:28.358Z,94763.81
2022-08-11T08:11:49.358Z,94767.19
2022-08-11T08:14:09.960Z,94762.63
2022-08-11T08:16:30.784Z,94766.41
2022-08-11T08:18:36.816Z,94762.25
2022-08-11T08:20:52.194Z,94767.78
2022-08-11T08:22:57.186Z,94765.91
2022-08-11T08:25:00.008Z,94758.75
2022-08-11T08:27:02.478Z,94753.22
2022-08-11T08:29:24.988Z,94752.19
2022-08-11T08:31:27.200Z,94753.28
2022-08-11T08:33:30.788Z,94754.94
2022-08-11T08:35:33.303Z,94752.13
2022-08-11T08:37:45.658Z,94743.63
2022-08-11T08:39:49.580Z,94748.88
2022-08-11T08:41:57.674Z,94751.31
2022-08-11T08:44:27.622Z,94745.41
2022-08-11T08:46:35.896Z,94746.25
2022-08-11T08:48:38.147Z,94745.31
2022-08-11T08:51:04.283Z,94742.03
2022-08-11T08:53:07.011Z,94748.22
2022-08-11T08:55:10.733Z,94748.28
2022-08-11T08:57:14.143Z,94751.94
2022-08-11T08:59:16.179Z,94740.84
2022-08-11T09:01:21.413Z,94743.75
2022-08-11T09:03:41.032Z,94744.00
2022-08-11T09:05:45.915Z,94737.31
2022-08-11T09:07:51.329Z,94737.31
2022-08-11T09:09:55.121Z,94751.28
2022-08-11T09:11:57.254Z,94740.94
2022-08-11T09:14:05.563Z,94736.03
2022-08-11T09:16:10.045Z,94732.97
2022-08-11T09:18:12.579Z,94727.66
2022-08-11T09:20:19.874Z,94723.25
2022-08-11T09:22:40.895Z,94725.19
2022-08-11T09:25:01.229Z,94739.13
2022-08-11T09:27:07.136Z,94723.25
2022-08-11T09:29:10.575Z,94730.13
2022-08-11T09:31:13.409Z,94721.00
2022-08-11T09:33:17.215Z,94727.25
2022-08-11T09:35:19.566Z,94732.41
2022-08-11T09:37:54.230Z,94722.25
2022-08-11T09:40:15.831Z,94717.31
2022-08-11T09:42:23.438Z,94718.94
2022-08-11T09:44:45.950Z,94714.44
2022-08-11T09:46:52.481Z,94713.78
2022-08-11T09:48:59.918Z,94708.72
2022-08-11T09:51:03.268Z,94703.31
2022-08-11T09:53:35.702Z,94712.63
2022-08-11T09:55:29.236Z,94695.69
2022-08-11T09:57:49.454Z,94711.97
2022-08-11T09:59:53.292Z,94708.56
2022-08-11T10:02:15.777Z,94705.63
2022-08-11T10:04:21.147Z,94700.50
2022-08-11T10:06:42.314Z,94703.53
2022-08-11T10:08:46.447Z,94692.47
2022-08-11T10:10:48.623Z,94699.38
2022-08-11T10:12:56.481Z,94697.47
2022-08-11T10:15:23.359Z,94696.09
2022-08-11T10:17:25.329Z,94693.34
2022-08-11T10:19:27.256Z,94683.50
2022-08-11T10:21:44.378Z,94687.53
2022-08-11T10:24:05.672Z,94691.44
2022-08-11T10:26:27.190Z,94695.25
2022-08-11T10:28:55.604Z,94690.56
2022-08-11T10:31:17.275Z,94687.81
2022-08-11T10:33:52.089Z,94696.94
2022-08-11T10:36:02.067Z,94694.59
2022-08-11T10:38:20.415Z,94693.19
2022-08-11T10:40:23.847Z,94695.72
2022-08-11T10:42:57.164Z,94690.91
2022-08-11T10:45:01.667Z,94682.78
2022-08-11T10:47:25.103Z,94687.75
2022-08-11T10:49:27.209Z,94680.38
2022-08-11T10:51:50.629Z,94683.94
2022-08-11T10:54:13.921Z,94667.19
2022-08-11T10:56:34.788Z,94673.84
2022-08-11T10:58:50.306Z,94663.88
2022-08-11T11:00:57.089Z,94667.94
2022-08-11T11:03:22.298Z,94670.28
2022-08-11T11:05:29.647Z,94654.03
2022-08-11T11:07:44.340Z,94664.38
2022-08-11T11:09:51.352Z,94662.06
2022-08-11T11:12:13.600Z,94654.81
2022-08-11T11:14:46.696Z,94660.50
2022-08-11T11:17:10.287Z,94655.34
2022-08-11T11:19:19.208Z,94663.94
2022-08-11T11:21:21.810Z,94662.47
2022-08-11T11:23:42.486Z,94668.13
2022-08-11T11:25:44.301Z,94664.06
2022-08-11T11:27:57.751Z,94659.34
2022-08-11T11:30:09.140Z,94660.88
2022-08-11T11:32:38.899Z,94655.69
2022-08-11T11:35:18.263Z,94653.88
2022-08-11T11:37:20.192Z,94663.63
2022-08-11T11:39:24.058Z,94655.19
2022-08-11T11:41:26.325Z,94654.78
2022-08-11T11:43:31.685Z,94649.22
2022-08-11T11:45:33.678Z,94651.09
2022-08-11T11:47:36.903Z,94654.97
2022-08-11T11:49:44.298Z,94652.88
2022-08-11T11:51:52.692Z,94646.22
2022-08-11T11:53:55.250Z,94647.91
2022-08-11T11:55:59.162Z,94653.66
2022-08-11T11:58:22.146Z,94646.41
2022-08-11T12:00:43.589Z,94642.50
2022-08-11T12:02:45.679Z,94644.22
2022-08-11T12:04:48.983Z,94633.25
2022-08-11T12:06:52.351Z,94646.94
2022-08-11T12:08:56.386Z,94636.31
2022-08-11T12:11:22.427Z,94638.94
2022-08-11T12:13:42.420Z,94632.31
2022-08-11T12:16:34.190Z,94625.06
2022-08-11T12:18:06.709Z,94624.19
2022-08-11T12:20:33.141Z,94627.91
2022-08-11T12:23:03.736Z,94619.78
2022-08-11T12:27:43.757Z,94622.91
2022-08-11T12:29:55.938Z,94621.34
2022-08-11T12:32:00.515Z,94628.88
2022-08-11T12:34:06.251Z,94619.97
2022-08-11T12:36:10.055Z,94623.09
2022-08-11T12:38:12.561Z,94624.72
2022-08-11T12:40:42.600Z,94624.38
2022-08-11T12:43:24.307Z,94624.19
2022-08-11T12:45:41.788Z,94644.03
2022-08-11T12:48:57.512Z,94633.50
2022-08-11T12:50:52.936Z,94631.59
2022-08-11T12:52:57.174Z,94640.75
2022-08-11T12:55:13.636Z,94640.78
2022-08-11T12:57:55.284Z,94636.16
2022-08-11T13:00:16.360Z,94634.16
2022-08-11T13:02:44.345Z,94633.59
2022-08-11T13:04:59.268Z,94640.13
2022-08-11T13:07:03.333Z,94640.25
2022-08-11T13:09:06.724Z,94641.25
2022-08-11T13:11:56.985Z,94634.31
2022-08-11T13:13:55.127Z,94640.25
2022-08-11T13:15:58.855Z,94635.19
2022-08-11T13:18:01.331Z,94639.28
2022-08-11T13:20:03.519Z,94644.88
2022-08-11T13:22:07.627Z,94641.03
2022-08-11T13:24:09.282Z,94635.25
2022-08-11T13:26:11.412Z,94633.94
2022-08-11T13:28:14.258Z,94631.19
2022-08-11T13:30:40.367Z,94629.09
2022-08-11T13:32:45.395Z,94630.28
2022-08-11T13:34:47.569Z,94629.88
2022-08-11T13:36:53.901Z,94621.34
2022-08-11T13:38:58.464Z,94627.06
2022-08-11T13:41:00.500Z,94621.69
2022-08-11T13:43:02.937Z,94630.28
2022-08-11T13:45:07.498Z,94624.44
2022-08-11T13:47:13.005Z,94614.53
2022-08-11T13:49:18.414Z,94618.16
2022-08-11T13:51:35.980Z,94619.84
2022-08-11T13:53:37.836Z,94623.13
2022-08-11T13:55:51.279Z,94617.00
2022-08-11T13:58:07.305Z,94609.31
2022-08-11T14:00:27.601Z,94608.75
2022-08-11T14:02:31.755Z,94610.38
2022-08-11T14:04:50.301Z,94603.16
2022-08-11T14:06:53.946Z,94602.34
2022-08-11T14:08:56.007Z,94596.94
2022-08-11T14:12:20.554Z,94594.00
2022-08-11T14:13:48.005Z,94596.41
2022-08-11T14:15:50.911Z,94600.94
2022-08-11T14:17:56.787Z,94592.31
2022-08-11T14:20:02.130Z,94600.63
2022-08-11T14:22:23.950Z,94597.97
2022-08-11T14:24:27.241Z,94598.50
2022-08-11T14:26:29.133Z,94595.00
2022-08-11T14:28:40.053Z,94589.28
2022-08-11T14:31:01.453Z,94600.00
2022-08-11T14:33:16.799Z,94590.38
2022-08-11T14:35:19.631Z,94601.75
2022-08-11T14:37:23.320Z,94591.19
2022-08-11T14:39:31.214Z,94592.97
2022-08-11T14:42:10.009Z,94592.88
2022-08-11T14:44:32.277Z,94593.13
2022-08-11T14:46:53.228Z,94588.13
2022-08-11T14:48:55.430Z,94591.03
2022-08-11T14:50:57.608Z,94592.66
2022-08-11T14:53:10.028Z,94587.00
2022-08-11T14:55:32.289Z,94590.19
2022-08-11T14:57:55.393Z,94580.56
2022-08-11T15:00:00.656Z,94574.97
2022-08-11T15:02:22.971Z,94578.16
2022-08-11T15:04:35.949Z,94578.66
2022-08-11T15:06:38.621Z,94578.97
2022-08-11T15:08:56.608Z,94582.59
2022-08-11T15:10:58.609Z,94576.84
2022-08-11T15:13:01.349Z,94581.28
2022-08-11T15:15:24.546Z,94573.81
2022-08-11T15:17:29.448Z,94575.19
2022-08-11T15:20:06.070Z,94573.09
2022-08-11T15:22:28.153Z,94565.69
2022-08-11T15:24:31.297Z,94578.09
2022-08-11T15:27:00.947Z,94580.50
2022-08-11T15:29:23.534Z,94577.53
2022-08-11T15:31:42.460Z,94571.47
2022-08-11T15:34:18.056Z,94572.81
2022-08-11T15:36:38.966Z,94572.38
2022-08-11T15:38:45.149Z,94573.72
2022-08-11T15:41:05.463Z,94577.63
2022-08-11T15:43:33.762Z,94570.38
2022-08-11T15:45:50.803Z,94571.03
2022-08-11T15:48:05.743Z,94573.94
2022-08-11T15:50:13.681Z,94571.53
2022-08-11T15:52:19.167Z,94570.31
2022-08-11T15:54:25.737Z,94576.06
2022-08-11T15:56:29.791Z,94580.75
2022-08-11T15:59:10.568Z,94572.31
2022-08-11T16:01:34.739Z,94583.09
2022-08-11T16:04:12.810Z,94584.25
2022-08-11T16:06:15.483Z,94586.75
2022-08-11T16:08:32.571Z,94587.56
2022-08-11T16:10:35.779Z,94589.72
2022-08-11T16:12:39.884Z,94582.94
2022-08-11T16:15:04.238Z,94584.22
2022-08-11T16:17:07.767Z,94582.19
2022-08-11T16:19:10.962Z,94586.03
2022-08-11T16:21:33.901Z,94576.44
2022-08-11T16:23:37.720Z,94583.22
2022-08-11T16:27:05.718Z,94580.88
2022-08-11T16:28:06.947Z,94586.38
2022-08-11T16:30:10.887Z,94587.97
2022-08-11T16:32:19.100Z,94581.81
2022-08-11T16:34:39.955Z,94584.94
2022-08-11T16:37:00.772Z,94584.22
2022-08-11T16:39:03.822Z,94594.22
2022-08-11T16:41:11.505Z,94592.41
2022-08-11T16:43:38.050Z,94587.94
2022-08-11T16:45:59.910Z,94596.75
2022-08-11T16:48:36.175Z,94596.66
2022-08-11T16:50:24.307Z,94595.34
2022-08-11T16:52:26.536Z,94589.81
2022-08-11T16:54:29.485Z,94595.34
2022-08-11T16:56:35.408Z,94599.88
2022-08-11T16:58:56.887Z,94604.53
2022-08-11T17:00:59.893Z,94606.38
2022-08-11T17:03:20.642Z,94615.81
2022-08-11T17:05:53.896Z,94607.38
2022-08-11T17:08:17.895Z,94614.66
2022-08-11T17:10:52.770Z,94617.66
2022-08-11T17:13:09.362Z,94621.44
2022-08-11T17:15:35.988Z,94620.25
2022-08-11T17:17:38.890Z,94627.69
2022-08-11T17:20:39.581Z,94626.31
2022-08-11T17:22:28.607Z,94623.78
2022-08-11T17:24:31.771Z,94630.97
2022-08-11T17:26:58.413Z,94632.50
2022-08-11T17:29:02.418Z,94631.38
2022-08-11T17:31:23.887Z,94631.59
2022-08-11T17:33:44.157Z,94625.59
2022-08-11T17:35:45.991Z,94628.31
2022-08-11T17:37:48.544Z,94636.16
2022-08-11T17:39:50.976Z,94647.25
2022-08-11T17:42:12.106Z,94643.97
2022-08-11T17:44:32.838Z,94644.00
2022-08-11T17:46:54.630Z,94647.06
2022-08-11T17:48:56.917Z,94651.91
2022-08-11T17:51:11.072Z,94658.97
2022-08-11T17:53:32.121Z,94662.56
2022-08-11T17:55:54.120Z,94657.56
2022-08-11T17:58:14.851Z,94664.84
2022-08-11T18:00:17.519Z,94662.00
2022-08-11T18:02:44.164Z,94671.16
2022-08-11T18:04:48.137Z,94674.47
2022-08-11T18:06:50.764Z,94670.78
2022-08-11T18:09:12.665Z,94669.53
2022-08-11T18:12:06.454Z,94670.66
2022-08-11T18:14:15.663Z,94672.06
2022-08-11T18:16:37.513Z,94669.00
2022-08-11T18:18:58.212Z,94680.59
2022-08-11T18:21:18.680Z,94678.41
2022-08-11T18:23:46.700Z,94679.28
2022-08-11T18:26:09.062Z,94680.91
2022-08-11T18:28:31.336Z,94690.47
2022-08-11T18:31:03.171Z,94680.38
2022-08-11T18:33:50.592Z,94691.44
2022-08-11T18:36:12.453Z,94690.47
2022-08-11T18:38:35.509Z,94694.28
2022-08-11T18:40:56.589Z,94689.19
2022-08-11T18:43:25.120Z,94701.59
2022-08-11T18:45:47.166Z,94696.88
2022-08-11T18:48:18.013Z,94700.81
2022-08-11T18:50:40.612Z,94701.59
2022-08-11T18:53:09.001Z,94696.56
2022-08-11T18:55:35.409Z,94699.88
2022-08-11T18:57:58.157Z,94692.88
2022-08-11T19:00:20.542Z,94710.25
2022-08-11T19:02:48.628Z,94704.19
2022-08-11T19:05:15.195Z,94712.31
2022-08-11T19:07:35.995Z,94709.44
2022-08-11T19:09:58.550Z,94703.94
2022-08-11T19:12:20.133Z,94703.69
2022-08-11T19:14:41.542Z,94694.47
2022-08-11T19:17:02.979Z,94701.44
2022-08-11T19:19:23.732Z,94687.34
2022-08-11T19:21:45.676Z,94695.59
2022-08-11T19:24:10.434Z,94687.06
2022-08-11T19:26:31.597Z,94695.53
2022-08-11T19:28:54.122Z,94693.66
2022-08-11T19:31:14.936Z,94692.13
2022-08-11T19:34:00.447Z,94699.09
2022-08-11T19:36:17.100Z,94692.13
2022-08-11T19:38:37.561Z,94687.06
2022-08-11T19:40:59.091Z,94696.34
2022-08-11T19:43:26.179Z,94696.25
2022-08-11T19:45:52.504Z,94699.19
2022-08-11T19:48:31.243Z,94689.34
2022-08-11T19:50:53.401Z,94693.25
2022-08-11T19:53:17.357Z,94693.66
2022-08-11T19:55:38.060Z,94683.53
2022-08-11T19:58:01.200Z,94700.22
2022-08-11T20:00:25.009Z,94696.00
2022-08-11T20:02:50.487Z,94695.03
2022-08-11T20:05:11.095Z,94698.84
2022-08-11T20:07:32.016Z,94703.47
2022-08-11T20:10:04.740Z,94703.78
2022-08-11T20:12:26.837Z,94694.53
2022-08-11T20:14:50.061Z,94706.03
2022-08-11T20:17:11.926Z,94699.06
2022-08-11T20:19:56.100Z,94694.53
2022-08-11T20:22:17.803Z,94700.94
2022-08-11T20:24:39.392Z,94701.19
2022-08-11T20:26:59.686Z,94706.22
2022-08-11T20:29:20.705Z,94699.47
2022-08-11T20:31:42.061Z,94704.19
2022-08-11T20:34:03.726Z,94704.19
2022-08-11T20:36:26.796Z,94705.81
2022-08-11T20:38:49.629Z,94708.50
2022-08-11T20:41:11.454Z,94709.63
2022-08-11T20:44:08.245Z,94715.53
2022-08-11T20:46:15.479Z,94712.06
2022-08-11T20:48:36.943Z,94714.97
2022-08-11T20:50:57.183Z,94716.84
2022-08-11T20:53:18.146Z,94709.84
2022-08-11T20:55:52.039Z,94711.97
2022-08-11T20:58:18.280Z,94708.81
2022-08-11T21:00:40.123Z,94709.63
2022-08-11T21:03:01.315Z,94717.66
2022-08-11T21:06:08.980Z,94710.44
2022-08-11T21:08:06.739Z,94707.50
2022-08-11T21:10:28.031Z,94705.91
2022-08-11T21:12:50.691Z,94709.94
2022-08-11T21:15:39.183Z,94717.72
2022-08-11T21:18:06.084Z,94721.22
2022-08-11T21:20:29.248Z,94724.13
2022-08-11T21:22:59.497Z,94728.94
2022-08-11T21:25:27.530Z,94734.13
2022-08-11T21:27:48.264Z,94728.34
2022-08-11T21:30:08.941Z,94731.53
2022-08-11T21:32:29.264Z,94732.56
2022-08-11T21:34:50.070Z,94735.97
2022-08-11T21:37:11.331Z,94735.91
2022-08-11T21:39:35.576Z,94739.94
2022-08-11T21:41:55.981Z,94742.41
2022-08-11T21:44:17.408Z,94743.34
2022-08-11T21:46:39.661Z,94740.34
2022-08-11T21:49:00.941Z,94747.00
2022-08-11T21:51:21.393Z,94749.19
2022-08-11T21:53:41.807Z,94746.28
2022-08-11T21:56:03.934Z,94744.19
2022-08-11T21:58:25.179Z,94742.44
2022-08-11T22:00:45.650Z,94733.84
2022-08-11T22:03:06.100Z,94743.00
2022-08-11T22:05:26.815Z,94741.16
2022-08-11T22:07:47.208Z,94733.03
2022-08-11T22:10:31.998Z,94743.00
2022-08-11T22:12:48.799Z,94743.13
2022-08-11T22:15:09.497Z,94740.31
2022-08-11T22:17:29.768Z,94741.03
2022-08-11T22:19:50.164Z,94748.09
2022-08-11T22:22:11.512Z,94741.00
2022-08-11T22:24:32.444Z,94743.28
2022-08-11T22:26:54.387Z,94742.00
2022-08-11T22:29:14.744Z,94741.47
2022-08-11T22:31:35.639Z,94745.75
2022-08-11T22:34:02.698Z,94738.78
2022-08-11T22:36:23.756Z,94737.72
2022-08-11T22:38:44.635Z,94734.81
2022-08-11T22:41:05.079Z,94737.16
2022-08-11T22:43:26.076Z,94727.75
2022-08-11T22:45:46.462Z,94732.03
2022-08-11T22:48:07.877Z,94729.84
2022-08-11T23:20:54.875Z,94713.63
2022-08-11T23:23:16.187Z,94713.31
2022-08-11T23:25:36.826Z,94713.31
2022-08-11T23:27:57.743Z,94716.78
2022-08-11T23:30:19.468Z,94720.41
2022-08-11T23:32:40.616Z,94712.38
2022-08-11T23:35:40.062Z,94715.53
2022-08-11T23:37:44.698Z,94717.28
2022-08-11T23:40:04.936Z,94711.00
2022-08-11T23:42:25.792Z,94705.41
2022-08-11T23:44:46.574Z,94707.03
2022-08-11T23:47:08.997Z,94708.56
2022-08-11T23:49:29.615Z,94707.16
2022-08-11T23:51:50.341Z,94709.50
2022-08-11T23:54:11.203Z,94704.91
2022-08-11T23:56:32.255Z,94703.72
2022-08-11T23:58:53.687Z,94711.81
